sensor_id;sensor_type;location;lat;lon;timestamp;P1;durP1;ratioP1;P2;durP2;ratioP2
55210;SDS011;41082;52.822;6.666;2024-01-27T00:01:22;21.85;;;4.13;;
55210;SDS011;41082;52.822;6.666;2024-01-27T00:03:47;21.92;;;2.00;;
55210;SDS011;41082;52.822;6.666;2024-01-27T00:06:13;21.73;;;2.45;;
55210;SDS011;41082;52.822;6.666;2024-01-27T00:08:39;23.50;;;2.40;;
55210;SDS011;41082;52.822;6.666;2024-01-27T00:11:05;20.70;;;1.52;;
55210;SDS011;41082;52.822;6.666;2024-01-27T00:13:30;16.70;;;2.20;;
55210;SDS011;41082;52.822;6.666;2024-01-27T00:15:56;20.92;;;1.80;;
55210;SDS011;41082;52.822;6.666;2024-01-27T00:18:22;24.17;;;2.60;;
55210;SDS011;41082;52.822;6.666;2024-01-27T00:20:48;17.98;;;1.98;;
55210;SDS011;41082;52.822;6.666;2024-01-27T00:23:14;20.45;;;2.17;;
55210;SDS011;41082;52.822;6.666;2024-01-27T00:25:40;23.42;;;1.63;;
55210;SDS011;41082;52.822;6.666;2024-01-27T00:28:05;16.08;;;2.53;;
55210;SDS011;41082;52.822;6.666;2024-01-27T00:30:31;19.23;;;1.88;;
55210;SDS011;41082;52.822;6.666;2024-01-27T00:32:56;23.55;;;2.33;;
55210;SDS011;41082;52.822;6.666;2024-01-27T00:35:22;16.40;;;2.00;;
55210;SDS011;41082;52.822;6.666;2024-01-27T00:37:48;22.70;;;3.38;;
55210;SDS011;41082;52.822;6.666;2024-01-27T00:40:13;17.52;;;2.10;;
55210;SDS011;41082;52.822;6.666;2024-01-27T00:42:40;23.08;;;2.42;;
55210;SDS011;41082;52.822;6.666;2024-01-27T00:45:06;21.65;;;1.98;;
55210;SDS011;41082;52.822;6.666;2024-01-27T00:47:32;20.45;;;2.22;;
55210;SDS011;41082;52.822;6.666;2024-01-27T00:49:57;24.02;;;2.28;;
55210;SDS011;41082;52.822;6.666;2024-01-27T00:52:23;24.75;;;2.45;;
55210;SDS011;41082;52.822;6.666;2024-01-27T00:54:49;21.65;;;3.00;;
55210;SDS011;41082;52.822;6.666;2024-01-27T00:57:14;21.23;;;2.35;;
55210;SDS011;41082;52.822;6.666;2024-01-27T00:59:40;24.10;;;2.58;;
55210;SDS011;41082;52.822;6.666;2024-01-27T01:02:06;15.27;;;2.60;;
55210;SDS011;41082;52.822;6.666;2024-01-27T01:04:32;19.60;;;2.42;;
55210;SDS011;41082;52.822;6.666;2024-01-27T01:06:58;16.05;;;1.77;;
55210;SDS011;41082;52.822;6.666;2024-01-27T01:09:23;15.63;;;1.70;;
55210;SDS011;41082;52.822;6.666;2024-01-27T01:11:49;19.27;;;1.90;;
55210;SDS011;41082;52.822;6.666;2024-01-27T01:14:15;21.33;;;3.10;;
55210;SDS011;41082;52.822;6.666;2024-01-27T01:16:41;17.60;;;2.03;;
55210;SDS011;41082;52.822;6.666;2024-01-27T01:19:07;21.10;;;2.28;;
55210;SDS011;41082;52.822;6.666;2024-01-27T01:21:33;19.70;;;2.05;;
55210;SDS011;41082;52.822;6.666;2024-01-27T01:23:59;24.73;;;2.53;;
55210;SDS011;41082;52.822;6.666;2024-01-27T01:26:25;17.40;;;2.35;;
55210;SDS011;41082;52.822;6.666;2024-01-27T01:28:51;19.73;;;2.63;;
55210;SDS011;41082;52.822;6.666;2024-01-27T01:31:17;16.70;;;2.25;;
55210;SDS011;41082;52.822;6.666;2024-01-27T01:33:43;18.48;;;2.13;;
55210;SDS011;41082;52.822;6.666;2024-01-27T01:36:09;23.83;;;2.72;;
55210;SDS011;41082;52.822;6.666;2024-01-27T01:38:35;20.35;;;2.00;;
55210;SDS011;41082;52.822;6.666;2024-01-27T01:41:00;17.33;;;2.22;;
55210;SDS011;41082;52.822;6.666;2024-01-27T01:43:26;20.13;;;3.15;;
55210;SDS011;41082;52.822;6.666;2024-01-27T01:45:52;18.85;;;2.13;;
55210;SDS011;41082;52.822;6.666;2024-01-27T01:48:19;17.23;;;2.25;;
55210;SDS011;41082;52.822;6.666;2024-01-27T01:50:45;14.95;;;1.92;;
55210;SDS011;41082;52.822;6.666;2024-01-27T01:53:12;17.55;;;2.00;;
55210;SDS011;41082;52.822;6.666;2024-01-27T01:55:38;14.30;;;1.95;;
55210;SDS011;41082;52.822;6.666;2024-01-27T01:58:04;20.70;;;2.22;;
55210;SDS011;41082;52.822;6.666;2024-01-27T02:00:31;20.25;;;1.48;;
55210;SDS011;41082;52.822;6.666;2024-01-27T02:02:57;23.33;;;2.72;;
55210;SDS011;41082;52.822;6.666;2024-01-27T02:05:23;17.60;;;2.22;;
55210;SDS011;41082;52.822;6.666;2024-01-27T02:07:48;16.08;;;2.00;;
55210;SDS011;41082;52.822;6.666;2024-01-27T02:10:15;19.88;;;2.00;;
55210;SDS011;41082;52.822;6.666;2024-01-27T02:12:45;18.58;;;2.50;;
55210;SDS011;41082;52.822;6.666;2024-01-27T02:15:11;12.52;;;2.58;;
55210;SDS011;41082;52.822;6.666;2024-01-27T02:17:40;17.70;;;2.70;;
55210;SDS011;41082;52.822;6.666;2024-01-27T02:20:06;22.95;;;2.30;;
55210;SDS011;41082;52.822;6.666;2024-01-27T02:22:33;16.30;;;2.22;;
55210;SDS011;41082;52.822;6.666;2024-01-27T02:24:59;15.77;;;1.60;;
55210;SDS011;41082;52.822;6.666;2024-01-27T02:27:25;11.07;;;1.65;;
55210;SDS011;41082;52.822;6.666;2024-01-27T02:29:51;15.13;;;2.15;;
55210;SDS011;41082;52.822;6.666;2024-01-27T02:32:17;15.55;;;2.00;;
55210;SDS011;41082;52.822;6.666;2024-01-27T02:34:42;14.48;;;2.30;;
55210;SDS011;41082;52.822;6.666;2024-01-27T02:37:09;16.60;;;2.05;;
55210;SDS011;41082;52.822;6.666;2024-01-27T02:39:35;15.18;;;2.10;;
55210;SDS011;41082;52.822;6.666;2024-01-27T02:42:01;15.60;;;1.65;;
55210;SDS011;41082;52.822;6.666;2024-01-27T02:44:27;18.13;;;2.60;;
55210;SDS011;41082;52.822;6.666;2024-01-27T02:46:52;16.67;;;2.08;;
55210;SDS011;41082;52.822;6.666;2024-01-27T02:49:18;18.10;;;1.90;;
55210;SDS011;41082;52.822;6.666;2024-01-27T02:51:43;22.90;;;3.15;;
55210;SDS011;41082;52.822;6.666;2024-01-27T02:54:09;20.90;;;3.03;;
55210;SDS011;41082;52.822;6.666;2024-01-27T02:56:35;15.30;;;1.85;;
55210;SDS011;41082;52.822;6.666;2024-01-27T02:59:01;17.95;;;2.33;;
55210;SDS011;41082;52.822;6.666;2024-01-27T03:01:27;19.17;;;2.00;;
55210;SDS011;41082;52.822;6.666;2024-01-27T03:03:52;17.05;;;2.42;;
55210;SDS011;41082;52.822;6.666;2024-01-27T03:06:18;25.17;;;3.28;;
55210;SDS011;41082;52.822;6.666;2024-01-27T03:08:44;14.43;;;2.67;;
55210;SDS011;41082;52.822;6.666;2024-01-27T03:11:09;14.55;;;1.90;;
55210;SDS011;41082;52.822;6.666;2024-01-27T03:13:35;17.63;;;2.70;;
55210;SDS011;41082;52.822;6.666;2024-01-27T03:16:01;13.60;;;2.25;;
55210;SDS011;41082;52.822;6.666;2024-01-27T03:18:27;17.67;;;3.15;;
55210;SDS011;41082;52.822;6.666;2024-01-27T03:20:53;19.15;;;2.20;;
55210;SDS011;41082;52.822;6.666;2024-01-27T03:23:18;17.73;;;2.95;;
55210;SDS011;41082;52.822;6.666;2024-01-27T03:25:44;15.52;;;2.28;;
55210;SDS011;41082;52.822;6.666;2024-01-27T03:28:10;18.75;;;2.22;;
55210;SDS011;41082;52.822;6.666;2024-01-27T03:30:35;14.88;;;1.80;;
55210;SDS011;41082;52.822;6.666;2024-01-27T03:33:01;15.73;;;2.47;;
55210;SDS011;41082;52.822;6.666;2024-01-27T03:35:27;19.80;;;2.05;;
55210;SDS011;41082;52.822;6.666;2024-01-27T03:37:52;18.73;;;2.63;;
55210;SDS011;41082;52.822;6.666;2024-01-27T03:40:18;18.67;;;2.50;;
55210;SDS011;41082;52.822;6.666;2024-01-27T03:42:44;12.68;;;1.98;;
55210;SDS011;41082;52.822;6.666;2024-01-27T03:45:09;19.13;;;2.00;;
55210;SDS011;41082;52.822;6.666;2024-01-27T03:47:35;16.10;;;2.00;;
55210;SDS011;41082;52.822;6.666;2024-01-27T03:50:00;15.52;;;2.70;;
55210;SDS011;41082;52.822;6.666;2024-01-27T03:52:26;15.48;;;1.90;;
55210;SDS011;41082;52.822;6.666;2024-01-27T03:54:51;15.05;;;2.45;;
55210;SDS011;41082;52.822;6.666;2024-01-27T03:57:17;21.38;;;1.90;;
55210;SDS011;41082;52.822;6.666;2024-01-27T03:59:43;13.35;;;1.95;;
55210;SDS011;41082;52.822;6.666;2024-01-27T04:02:08;19.00;;;2.53;;
55210;SDS011;41082;52.822;6.666;2024-01-27T04:04:34;19.15;;;1.83;;
55210;SDS011;41082;52.822;6.666;2024-01-27T04:07:00;15.10;;;1.58;;
55210;SDS011;41082;52.822;6.666;2024-01-27T04:09:26;16.60;;;2.70;;
55210;SDS011;41082;52.822;6.666;2024-01-27T04:11:52;19.05;;;2.80;;
55210;SDS011;41082;52.822;6.666;2024-01-27T04:14:18;18.95;;;2.30;;
55210;SDS011;41082;52.822;6.666;2024-01-27T04:16:43;16.75;;;1.90;;
55210;SDS011;41082;52.822;6.666;2024-01-27T04:19:09;18.30;;;1.80;;
55210;SDS011;41082;52.822;6.666;2024-01-27T04:21:35;15.40;;;2.22;;
55210;SDS011;41082;52.822;6.666;2024-01-27T04:24:00;20.63;;;2.33;;
55210;SDS011;41082;52.822;6.666;2024-01-27T04:26:26;16.88;;;2.03;;
55210;SDS011;41082;52.822;6.666;2024-01-27T04:28:52;15.70;;;2.38;;
55210;SDS011;41082;52.822;6.666;2024-01-27T04:31:17;19.70;;;2.00;;
55210;SDS011;41082;52.822;6.666;2024-01-27T04:33:43;14.15;;;1.65;;
55210;SDS011;41082;52.822;6.666;2024-01-27T04:36:08;23.17;;;2.03;;
55210;SDS011;41082;52.822;6.666;2024-01-27T04:38:35;14.27;;;2.40;;
55210;SDS011;41082;52.822;6.666;2024-01-27T04:41:01;17.30;;;1.95;;
55210;SDS011;41082;52.822;6.666;2024-01-27T04:43:27;18.52;;;1.85;;
55210;SDS011;41082;52.822;6.666;2024-01-27T04:45:53;23.02;;;2.70;;
55210;SDS011;41082;52.822;6.666;2024-01-27T04:48:19;17.48;;;2.00;;
55210;SDS011;41082;52.822;6.666;2024-01-27T04:50:45;19.75;;;2.58;;
55210;SDS011;41082;52.822;6.666;2024-01-27T04:53:11;17.95;;;1.63;;
55210;SDS011;41082;52.822;6.666;2024-01-27T04:55:37;23.95;;;3.25;;
55210;SDS011;41082;52.822;6.666;2024-01-27T04:58:03;9.02;;;1.65;;
55210;SDS011;41082;52.822;6.666;2024-01-27T05:00:29;14.55;;;1.75;;
55210;SDS011;41082;52.822;6.666;2024-01-27T05:02:55;22.45;;;2.92;;
55210;SDS011;41082;52.822;6.666;2024-01-27T05:05:22;13.63;;;1.75;;
55210;SDS011;41082;52.822;6.666;2024-01-27T05:07:48;23.10;;;2.03;;
55210;SDS011;41082;52.822;6.666;2024-01-27T05:10:17;13.52;;;2.35;;
55210;SDS011;41082;52.822;6.666;2024-01-27T05:12:42;21.55;;;1.85;;
55210;SDS011;41082;52.822;6.666;2024-01-27T05:15:09;20.13;;;1.80;;
55210;SDS011;41082;52.822;6.666;2024-01-27T05:17:35;23.02;;;2.35;;
55210;SDS011;41082;52.822;6.666;2024-01-27T05:20:01;16.80;;;2.72;;
55210;SDS011;41082;52.822;6.666;2024-01-27T05:22:29;13.48;;;1.85;;
55210;SDS011;41082;52.822;6.666;2024-01-27T05:24:55;19.48;;;2.38;;
55210;SDS011;41082;52.822;6.666;2024-01-27T05:27:21;16.23;;;2.55;;
55210;SDS011;41082;52.822;6.666;2024-01-27T05:29:46;17.70;;;2.10;;
55210;SDS011;41082;52.822;6.666;2024-01-27T05:32:12;19.80;;;2.63;;
55210;SDS011;41082;52.822;6.666;2024-01-27T05:34:37;17.80;;;2.53;;
55210;SDS011;41082;52.822;6.666;2024-01-27T05:37:03;12.50;;;1.58;;
55210;SDS011;41082;52.822;6.666;2024-01-27T05:39:29;23.00;;;2.28;;
55210;SDS011;41082;52.822;6.666;2024-01-27T05:41:54;21.45;;;2.35;;
55210;SDS011;41082;52.822;6.666;2024-01-27T05:44:20;17.92;;;3.45;;
55210;SDS011;41082;52.822;6.666;2024-01-27T05:46:46;14.38;;;1.90;;
55210;SDS011;41082;52.822;6.666;2024-01-27T05:49:12;17.58;;;2.20;;
55210;SDS011;41082;52.822;6.666;2024-01-27T05:51:37;16.60;;;2.85;;
55210;SDS011;41082;52.822;6.666;2024-01-27T05:54:03;19.25;;;3.20;;
55210;SDS011;41082;52.822;6.666;2024-01-27T05:56:29;32.20;;;4.55;;
55210;SDS011;41082;52.822;6.666;2024-01-27T05:58:54;21.40;;;3.35;;
55210;SDS011;41082;52.822;6.666;2024-01-27T06:01:20;19.30;;;4.28;;
55210;SDS011;41082;52.822;6.666;2024-01-27T06:03:46;23.48;;;3.20;;
55210;SDS011;41082;52.822;6.666;2024-01-27T06:06:11;22.85;;;3.25;;
55210;SDS011;41082;52.822;6.666;2024-01-27T06:08:37;22.77;;;3.83;;
55210;SDS011;41082;52.822;6.666;2024-01-27T06:11:03;22.23;;;4.30;;
55210;SDS011;41082;52.822;6.666;2024-01-27T06:13:29;19.35;;;3.53;;
55210;SDS011;41082;52.822;6.666;2024-01-27T06:15:54;18.23;;;3.60;;
55210;SDS011;41082;52.822;6.666;2024-01-27T06:18:20;28.17;;;4.22;;
55210;SDS011;41082;52.822;6.666;2024-01-27T06:20:46;18.15;;;4.13;;
55210;SDS011;41082;52.822;6.666;2024-01-27T06:23:12;19.20;;;3.17;;
55210;SDS011;41082;52.822;6.666;2024-01-27T06:25:37;21.90;;;5.20;;
55210;SDS011;41082;52.822;6.666;2024-01-27T06:28:03;21.17;;;3.80;;
55210;SDS011;41082;52.822;6.666;2024-01-27T06:30:29;18.80;;;4.35;;
55210;SDS011;41082;52.822;6.666;2024-01-27T06:32:54;18.25;;;4.00;;
55210;SDS011;41082;52.822;6.666;2024-01-27T06:35:20;18.35;;;4.25;;
55210;SDS011;41082;52.822;6.666;2024-01-27T06:37:46;22.63;;;4.50;;
55210;SDS011;41082;52.822;6.666;2024-01-27T06:40:12;23.15;;;5.13;;
55210;SDS011;41082;52.822;6.666;2024-01-27T06:42:38;23.92;;;4.97;;
55210;SDS011;41082;52.822;6.666;2024-01-27T06:45:04;20.25;;;4.30;;
55210;SDS011;41082;52.822;6.666;2024-01-27T06:47:30;16.48;;;4.03;;
55210;SDS011;41082;52.822;6.666;2024-01-27T06:49:55;19.92;;;4.57;;
55210;SDS011;41082;52.822;6.666;2024-01-27T06:52:21;22.17;;;4.85;;
55210;SDS011;41082;52.822;6.666;2024-01-27T06:54:46;20.08;;;4.30;;
55210;SDS011;41082;52.822;6.666;2024-01-27T06:57:22;22.20;;;4.80;;
55210;SDS011;41082;52.822;6.666;2024-01-27T06:59:49;18.67;;;4.10;;
55210;SDS011;41082;52.822;6.666;2024-01-27T07:02:23;21.85;;;4.35;;
55210;SDS011;41082;52.822;6.666;2024-01-27T07:04:51;21.38;;;4.63;;
55210;SDS011;41082;52.822;6.666;2024-01-27T07:07:17;23.63;;;4.07;;
55210;SDS011;41082;52.822;6.666;2024-01-27T07:09:51;26.33;;;5.22;;
55210;SDS011;41082;52.822;6.666;2024-01-27T07:12:16;22.25;;;4.93;;
55210;SDS011;41082;52.822;6.666;2024-01-27T07:14:42;16.00;;;4.47;;
55210;SDS011;41082;52.822;6.666;2024-01-27T07:17:08;18.25;;;4.63;;
55210;SDS011;41082;52.822;6.666;2024-01-27T07:19:33;22.65;;;5.20;;
55210;SDS011;41082;52.822;6.666;2024-01-27T07:21:59;23.45;;;4.25;;
55210;SDS011;41082;52.822;6.666;2024-01-27T07:24:26;15.35;;;3.78;;
55210;SDS011;41082;52.822;6.666;2024-01-27T07:26:52;17.35;;;4.55;;
55210;SDS011;41082;52.822;6.666;2024-01-27T07:29:18;13.88;;;4.30;;
55210;SDS011;41082;52.822;6.666;2024-01-27T07:31:45;22.00;;;5.03;;
55210;SDS011;41082;52.822;6.666;2024-01-27T07:34:10;22.58;;;5.22;;
55210;SDS011;41082;52.822;6.666;2024-01-27T07:36:36;15.60;;;4.45;;
55210;SDS011;41082;52.822;6.666;2024-01-27T07:39:02;18.63;;;4.30;;
55210;SDS011;41082;52.822;6.666;2024-01-27T07:41:30;19.88;;;4.20;;
55210;SDS011;41082;52.822;6.666;2024-01-27T07:43:56;16.15;;;4.50;;
55210;SDS011;41082;52.822;6.666;2024-01-27T07:46:21;18.40;;;5.47;;
55210;SDS011;41082;52.822;6.666;2024-01-27T07:48:50;22.83;;;5.35;;
55210;SDS011;41082;52.822;6.666;2024-01-27T07:51:16;19.05;;;4.38;;
55210;SDS011;41082;52.822;6.666;2024-01-27T07:53:42;20.70;;;5.18;;
55210;SDS011;41082;52.822;6.666;2024-01-27T07:56:07;17.45;;;5.47;;
55210;SDS011;41082;52.822;6.666;2024-01-27T07:58:33;20.83;;;5.45;;
55210;SDS011;41082;52.822;6.666;2024-01-27T08:00:59;18.55;;;5.13;;
55210;SDS011;41082;52.822;6.666;2024-01-27T08:03:25;19.73;;;5.18;;
55210;SDS011;41082;52.822;6.666;2024-01-27T08:05:51;21.45;;;5.28;;
55210;SDS011;41082;52.822;6.666;2024-01-27T08:08:16;28.58;;;6.13;;
55210;SDS011;41082;52.822;6.666;2024-01-27T08:10:43;17.30;;;4.65;;
55210;SDS011;41082;52.822;6.666;2024-01-27T08:13:09;19.05;;;5.68;;
55210;SDS011;41082;52.822;6.666;2024-01-27T08:15:37;15.68;;;5.13;;
55210;SDS011;41082;52.822;6.666;2024-01-27T08:18:03;24.73;;;5.88;;
55210;SDS011;41082;52.822;6.666;2024-01-27T08:20:29;19.58;;;5.78;;
55210;SDS011;41082;52.822;6.666;2024-01-27T08:22:55;20.60;;;6.57;;
55210;SDS011;41082;52.822;6.666;2024-01-27T08:25:20;25.17;;;6.57;;
55210;SDS011;41082;52.822;6.666;2024-01-27T08:27:46;15.45;;;5.50;;
55210;SDS011;41082;52.822;6.666;2024-01-27T08:30:12;23.83;;;5.60;;
55210;SDS011;41082;52.822;6.666;2024-01-27T08:32:38;15.35;;;5.75;;
55210;SDS011;41082;52.822;6.666;2024-01-27T08:35:03;24.92;;;7.30;;
55210;SDS011;41082;52.822;6.666;2024-01-27T08:37:29;27.35;;;6.82;;
55210;SDS011;41082;52.822;6.666;2024-01-27T08:39:56;15.13;;;6.13;;
55210;SDS011;41082;52.822;6.666;2024-01-27T08:42:22;16.95;;;5.80;;
55210;SDS011;41082;52.822;6.666;2024-01-27T08:44:48;24.33;;;6.85;;
55210;SDS011;41082;52.822;6.666;2024-01-27T08:47:13;25.27;;;6.28;;
55210;SDS011;41082;52.822;6.666;2024-01-27T08:49:39;20.98;;;6.53;;
55210;SDS011;41082;52.822;6.666;2024-01-27T08:52:04;17.17;;;6.20;;
55210;SDS011;41082;52.822;6.666;2024-01-27T08:54:30;21.33;;;8.05;;
55210;SDS011;41082;52.822;6.666;2024-01-27T08:56:56;29.05;;;8.82;;
55210;SDS011;41082;52.822;6.666;2024-01-27T08:59:21;19.35;;;6.80;;
55210;SDS011;41082;52.822;6.666;2024-01-27T09:01:47;27.58;;;6.82;;
55210;SDS011;41082;52.822;6.666;2024-01-27T09:04:12;25.00;;;6.65;;
55210;SDS011;41082;52.822;6.666;2024-01-27T09:06:38;17.83;;;6.35;;
55210;SDS011;41082;52.822;6.666;2024-01-27T09:09:04;23.73;;;6.72;;
55210;SDS011;41082;52.822;6.666;2024-01-27T09:11:30;17.98;;;7.03;;
55210;SDS011;41082;52.822;6.666;2024-01-27T09:13:57;24.05;;;7.60;;
55210;SDS011;41082;52.822;6.666;2024-01-27T09:16:22;24.23;;;7.47;;
55210;SDS011;41082;52.822;6.666;2024-01-27T09:18:48;20.25;;;7.68;;
55210;SDS011;41082;52.822;6.666;2024-01-27T09:21:17;19.92;;;7.20;;
55210;SDS011;41082;52.822;6.666;2024-01-27T09:23:46;22.08;;;7.95;;
55210;SDS011;41082;52.822;6.666;2024-01-27T09:26:12;25.10;;;7.15;;
55210;SDS011;41082;52.822;6.666;2024-01-27T09:28:39;21.80;;;7.90;;
55210;SDS011;41082;52.822;6.666;2024-01-27T09:31:09;29.95;;;7.55;;
55210;SDS011;41082;52.822;6.666;2024-01-27T09:33:35;21.83;;;7.97;;
55210;SDS011;41082;52.822;6.666;2024-01-27T09:36:01;22.25;;;7.88;;
55210;SDS011;41082;52.822;6.666;2024-01-27T09:38:27;22.42;;;8.82;;
55210;SDS011;41082;52.822;6.666;2024-01-27T09:40:53;25.17;;;8.10;;
55210;SDS011;41082;52.822;6.666;2024-01-27T09:43:19;23.42;;;8.05;;
55210;SDS011;41082;52.822;6.666;2024-01-27T09:45:46;26.58;;;8.15;;
55210;SDS011;41082;52.822;6.666;2024-01-27T09:48:12;28.92;;;8.50;;
55210;SDS011;41082;52.822;6.666;2024-01-27T09:50:41;20.90;;;7.78;;
55210;SDS011;41082;52.822;6.666;2024-01-27T09:53:07;25.13;;;7.72;;
55210;SDS011;41082;52.822;6.666;2024-01-27T09:55:34;22.45;;;7.13;;
55210;SDS011;41082;52.822;6.666;2024-01-27T09:58:00;19.48;;;7.88;;
55210;SDS011;41082;52.822;6.666;2024-01-27T10:00:26;18.95;;;7.13;;
55210;SDS011;41082;52.822;6.666;2024-01-27T10:02:54;24.40;;;7.05;;
55210;SDS011;41082;52.822;6.666;2024-01-27T10:05:20;25.38;;;7.82;;
55210;SDS011;41082;52.822;6.666;2024-01-27T10:07:46;22.52;;;7.40;;
55210;SDS011;41082;52.822;6.666;2024-01-27T10:10:12;21.27;;;7.43;;
55210;SDS011;41082;52.822;6.666;2024-01-27T10:12:40;31.42;;;7.95;;
55210;SDS011;41082;52.822;6.666;2024-01-27T10:15:22;23.75;;;7.13;;
55210;SDS011;41082;52.822;6.666;2024-01-27T10:17:48;18.20;;;7.72;;
55210;SDS011;41082;52.822;6.666;2024-01-27T10:20:14;22.02;;;6.82;;
55210;SDS011;41082;52.822;6.666;2024-01-27T10:22:44;20.90;;;6.50;;
55210;SDS011;41082;52.822;6.666;2024-01-27T10:25:10;18.25;;;6.07;;
55210;SDS011;41082;52.822;6.666;2024-01-27T10:27:37;21.45;;;5.72;;
55210;SDS011;41082;52.822;6.666;2024-01-27T10:30:03;17.80;;;7.22;;
55210;SDS011;41082;52.822;6.666;2024-01-27T10:32:31;18.90;;;6.28;;
55210;SDS011;41082;52.822;6.666;2024-01-27T10:35:04;18.45;;;6.57;;
55210;SDS011;41082;52.822;6.666;2024-01-27T10:37:30;16.30;;;6.70;;
55210;SDS011;41082;52.822;6.666;2024-01-27T10:40:00;25.73;;;6.47;;
55210;SDS011;41082;52.822;6.666;2024-01-27T10:42:28;19.27;;;5.95;;
55210;SDS011;41082;52.822;6.666;2024-01-27T10:44:56;20.92;;;6.07;;
55210;SDS011;41082;52.822;6.666;2024-01-27T10:47:27;20.35;;;5.82;;
55210;SDS011;41082;52.822;6.666;2024-01-27T10:49:57;17.30;;;5.00;;
55210;SDS011;41082;52.822;6.666;2024-01-27T10:52:41;23.73;;;7.30;;
55210;SDS011;41082;52.822;6.666;2024-01-27T10:55:10;31.58;;;6.55;;
55210;SDS011;41082;52.822;6.666;2024-01-27T10:57:37;20.02;;;5.97;;
55210;SDS011;41082;52.822;6.666;2024-01-27T11:00:05;16.20;;;5.30;;
55210;SDS011;41082;52.822;6.666;2024-01-27T11:02:32;21.33;;;5.70;;
55210;SDS011;41082;52.822;6.666;2024-01-27T11:05:02;20.83;;;5.50;;
55210;SDS011;41082;52.822;6.666;2024-01-27T11:07:32;15.40;;;5.50;;
55210;SDS011;41082;52.822;6.666;2024-01-27T11:09:58;18.00;;;5.50;;
55210;SDS011;41082;52.822;6.666;2024-01-27T11:12:24;18.67;;;5.07;;
55210;SDS011;41082;52.822;6.666;2024-01-27T11:14:51;16.70;;;5.10;;
55210;SDS011;41082;52.822;6.666;2024-01-27T11:17:17;18.30;;;4.78;;
55210;SDS011;41082;52.822;6.666;2024-01-27T11:19:44;17.92;;;4.88;;
55210;SDS011;41082;52.822;6.666;2024-01-27T11:22:26;16.83;;;4.53;;
55210;SDS011;41082;52.822;6.666;2024-01-27T11:25:04;13.93;;;3.97;;
55210;SDS011;41082;52.822;6.666;2024-01-27T11:27:31;21.25;;;4.82;;
55210;SDS011;41082;52.822;6.666;2024-01-27T11:29:57;17.52;;;4.18;;
55210;SDS011;41082;52.822;6.666;2024-01-27T11:32:23;19.15;;;4.53;;
55210;SDS011;41082;52.822;6.666;2024-01-27T11:34:49;18.63;;;5.15;;
55210;SDS011;41082;52.822;6.666;2024-01-27T11:37:16;19.40;;;4.40;;
55210;SDS011;41082;52.822;6.666;2024-01-27T11:39:42;18.95;;;4.65;;
55210;SDS011;41082;52.822;6.666;2024-01-27T11:42:09;14.60;;;3.50;;
55210;SDS011;41082;52.822;6.666;2024-01-27T11:44:39;20.85;;;4.88;;
55210;SDS011;41082;52.822;6.666;2024-01-27T11:47:07;20.20;;;4.07;;
55210;SDS011;41082;52.822;6.666;2024-01-27T11:49:43;19.58;;;3.58;;
55210;SDS011;41082;52.822;6.666;2024-01-27T11:52:18;12.82;;;2.97;;
55210;SDS011;41082;52.822;6.666;2024-01-27T11:54:43;19.42;;;4.05;;
55210;SDS011;41082;52.822;6.666;2024-01-27T11:57:09;15.18;;;3.35;;
55210;SDS011;41082;52.822;6.666;2024-01-27T11:59:35;16.27;;;3.53;;
55210;SDS011;41082;52.822;6.666;2024-01-27T12:02:03;21.13;;;3.72;;
55210;SDS011;41082;52.822;6.666;2024-01-27T12:04:29;18.83;;;4.00;;
55210;SDS011;41082;52.822;6.666;2024-01-27T12:06:55;13.20;;;3.03;;
55210;SDS011;41082;52.822;6.666;2024-01-27T12:09:21;18.55;;;3.83;;
55210;SDS011;41082;52.822;6.666;2024-01-27T12:11:47;15.98;;;3.42;;
55210;SDS011;41082;52.822;6.666;2024-01-27T12:14:13;19.88;;;2.97;;
55210;SDS011;41082;52.822;6.666;2024-01-27T12:16:38;14.10;;;2.83;;
55210;SDS011;41082;52.822;6.666;2024-01-27T12:19:04;16.45;;;3.10;;
55210;SDS011;41082;52.822;6.666;2024-01-27T12:21:30;15.32;;;3.17;;
55210;SDS011;41082;52.822;6.666;2024-01-27T12:23:56;18.60;;;3.47;;
55210;SDS011;41082;52.822;6.666;2024-01-27T12:26:24;17.13;;;2.60;;
55210;SDS011;41082;52.822;6.666;2024-01-27T12:28:51;15.68;;;3.03;;
55210;SDS011;41082;52.822;6.666;2024-01-27T12:31:17;14.57;;;3.33;;
55210;SDS011;41082;52.822;6.666;2024-01-27T12:33:55;16.73;;;3.00;;
55210;SDS011;41082;52.822;6.666;2024-01-27T12:36:21;13.02;;;2.97;;
55210;SDS011;41082;52.822;6.666;2024-01-27T12:38:57;15.80;;;3.08;;
55210;SDS011;41082;52.822;6.666;2024-01-27T12:41:25;20.15;;;3.50;;
55210;SDS011;41082;52.822;6.666;2024-01-27T12:43:53;11.82;;;2.35;;
55210;SDS011;41082;52.822;6.666;2024-01-27T12:46:19;11.77;;;3.00;;
55210;SDS011;41082;52.822;6.666;2024-01-27T12:48:45;13.25;;;3.40;;
55210;SDS011;41082;52.822;6.666;2024-01-27T12:51:11;19.45;;;3.50;;
55210;SDS011;41082;52.822;6.666;2024-01-27T12:53:40;14.57;;;2.40;;
55210;SDS011;41082;52.822;6.666;2024-01-27T12:56:08;16.73;;;3.00;;
55210;SDS011;41082;52.822;6.666;2024-01-27T12:58:38;18.20;;;2.95;;
55210;SDS011;41082;52.822;6.666;2024-01-27T13:01:05;9.95;;;2.55;;
55210;SDS011;41082;52.822;6.666;2024-01-27T13:03:31;19.88;;;2.90;;
55210;SDS011;41082;52.822;6.666;2024-01-27T13:05:57;14.48;;;2.58;;
55210;SDS011;41082;52.822;6.666;2024-01-27T13:08:23;21.15;;;3.17;;
55210;SDS011;41082;52.822;6.666;2024-01-27T13:10:49;16.00;;;3.08;;
55210;SDS011;41082;52.822;6.666;2024-01-27T13:13:15;13.13;;;2.80;;
55210;SDS011;41082;52.822;6.666;2024-01-27T13:15:41;15.00;;;3.55;;
55210;SDS011;41082;52.822;6.666;2024-01-27T13:18:06;10.70;;;2.78;;
55210;SDS011;41082;52.822;6.666;2024-01-27T13:20:32;10.48;;;3.90;;
55210;SDS011;41082;52.822;6.666;2024-01-27T13:22:58;13.52;;;2.80;;
55210;SDS011;41082;52.822;6.666;2024-01-27T13:25:24;17.17;;;2.83;;
55210;SDS011;41082;52.822;6.666;2024-01-27T13:27:50;13.90;;;3.08;;
55210;SDS011;41082;52.822;6.666;2024-01-27T13:30:16;14.77;;;3.97;;
55210;SDS011;41082;52.822;6.666;2024-01-27T13:32:42;14.52;;;3.25;;
55210;SDS011;41082;52.822;6.666;2024-01-27T13:35:09;16.95;;;2.72;;
55210;SDS011;41082;52.822;6.666;2024-01-27T13:37:35;15.68;;;3.15;;
55210;SDS011;41082;52.822;6.666;2024-01-27T13:40:02;18.13;;;2.90;;
55210;SDS011;41082;52.822;6.666;2024-01-27T13:42:29;17.80;;;2.90;;
55210;SDS011;41082;52.822;6.666;2024-01-27T13:44:55;18.10;;;3.03;;
55210;SDS011;41082;52.822;6.666;2024-01-27T13:47:21;12.32;;;2.47;;
55210;SDS011;41082;52.822;6.666;2024-01-27T13:49:47;18.25;;;3.25;;
55210;SDS011;41082;52.822;6.666;2024-01-27T13:52:13;11.77;;;2.35;;
55210;SDS011;41082;52.822;6.666;2024-01-27T13:54:38;12.82;;;2.95;;
55210;SDS011;41082;52.822;6.666;2024-01-27T13:57:04;18.35;;;4.28;;
55210;SDS011;41082;52.822;6.666;2024-01-27T13:59:30;15.18;;;3.65;;
55210;SDS011;41082;52.822;6.666;2024-01-27T14:01:57;14.77;;;2.50;;
55210;SDS011;41082;52.822;6.666;2024-01-27T14:04:23;14.27;;;3.65;;
55210;SDS011;41082;52.822;6.666;2024-01-27T14:06:52;12.15;;;2.67;;
55210;SDS011;41082;52.822;6.666;2024-01-27T14:09:22;12.73;;;2.72;;
55210;SDS011;41082;52.822;6.666;2024-01-27T14:11:48;16.45;;;3.20;;
55210;SDS011;41082;52.822;6.666;2024-01-27T14:14:14;22.15;;;5.15;;
55210;SDS011;41082;52.822;6.666;2024-01-27T14:16:40;15.68;;;3.20;;
55210;SDS011;41082;52.822;6.666;2024-01-27T14:19:08;14.93;;;2.72;;
55210;SDS011;41082;52.822;6.666;2024-01-27T14:21:33;11.13;;;2.65;;
55210;SDS011;41082;52.822;6.666;2024-01-27T14:23:59;15.57;;;3.33;;
55210;SDS011;41082;52.822;6.666;2024-01-27T14:26:30;11.70;;;2.88;;
55210;SDS011;41082;52.822;6.666;2024-01-27T14:28:56;11.05;;;2.85;;
55210;SDS011;41082;52.822;6.666;2024-01-27T14:31:22;14.93;;;3.42;;